createdAt,value
2023-03-08T00:00:59.844Z,96.35
2023-03-08T00:04:02.526Z,97.15
2023-03-08T00:07:05.149Z,96.62
2023-03-08T00:10:10.912Z,96.41
2023-03-08T00:13:13.521Z,96.72
2023-03-08T00:16:16.281Z,97.14
2023-03-08T00:19:18.868Z,97.69
2023-03-08T00:22:21.470Z,97.34
2023-03-08T00:25:25.416Z,97.59
2023-03-08T00:28:28.050Z,97.26
2023-03-08T00:31:30.694Z,97.35
2023-03-08T00:34:33.357Z,97.54
2023-03-08T00:37:36.017Z,96.88
2023-03-08T00:40:39.949Z,97.12
2023-03-08T00:43:43.355Z,97.46
2023-03-08T00:46:45.983Z,96.70
2023-03-08T00:49:48.610Z,96.30
2023-03-08T00:52:51.250Z,96.93
2023-03-08T00:55:56.669Z,96.56
2023-03-08T00:58:59.258Z,97.80
2023-03-08T01:02:01.910Z,97.92
2023-03-08T01:05:04.692Z,97.87
2023-03-08T01:08:07.263Z,98.59
2023-03-08T01:11:18.281Z,98.98
2023-03-08T01:14:20.844Z,98.74
2023-03-08T01:17:23.396Z,98.62
2023-03-08T01:20:25.974Z,98.46
2023-03-08T01:23:29.013Z,97.96
2023-03-08T01:26:32.997Z,98.04
2023-03-08T01:29:35.568Z,98.54
2023-03-08T01:32:38.204Z,98.42
2023-03-08T01:35:40.846Z,97.83
2023-03-08T01:38:43.809Z,97.56
2023-03-08T01:41:47.805Z,96.92
2023-03-08T01:44:52.481Z,97.02
2023-03-08T01:47:55.051Z,97.10
2023-03-08T01:50:57.842Z,97.51
2023-03-08T01:54:06.601Z,96.98
2023-03-08T01:57:18.705Z,96.56
2023-03-08T02:00:23.817Z,96.62
2023-03-08T02:03:26.412Z,97.03
2023-03-08T02:06:29.311Z,97.33
2023-03-08T02:09:32.248Z,97.88
2023-03-08T02:12:37.358Z,97.00
2023-03-08T02:15:39.926Z,97.19
2023-03-08T02:18:54.117Z,97.62
2023-03-08T02:21:56.692Z,97.68
2023-03-08T02:25:00.604Z,97.78
2023-03-08T02:28:04.478Z,97.35
2023-03-08T02:31:07.328Z,98.08
2023-03-08T02:34:10.079Z,98.09
2023-03-08T02:37:12.692Z,97.43
2023-03-08T02:40:16.681Z,97.98
2023-03-08T02:43:19.616Z,99.11
2023-03-08T02:46:22.256Z,99.16
2023-03-08T02:49:24.832Z,100.00
2023-03-08T02:52:27.410Z,100.00
2023-03-08T02:55:31.385Z,100.00
2023-03-08T02:58:34.050Z,100.00
2023-03-08T03:01:36.998Z,100.00
2023-03-08T03:04:39.637Z,100.00
2023-03-08T03:07:44.001Z,100.00
2023-03-08T03:10:47.996Z,100.00
2023-03-08T03:13:56.551Z,100.00
2023-03-08T03:16:59.346Z,100.00
2023-03-08T03:20:01.954Z,100.00
2023-03-08T03:23:04.549Z,100.00
2023-03-08T03:26:10.222Z,100.00
2023-03-08T03:29:12.822Z,100.00
2023-03-08T03:32:15.530Z,100.00
2023-03-08T03:35:18.154Z,100.00
2023-03-08T03:38:20.728Z,100.00
2023-03-08T03:41:25.190Z,100.00
2023-03-08T03:44:30.521Z,100.00
2023-03-08T03:47:33.173Z,100.00
2023-03-08T03:50:35.786Z,100.00
2023-03-08T03:53:38.411Z,100.00
2023-03-08T03:56:42.460Z,100.00
2023-03-08T03:59:45.034Z,100.00
2023-03-08T04:02:47.658Z,100.00
2023-03-08T04:05:50.291Z,100.00
2023-03-08T04:08:54.032Z,100.00
2023-03-08T04:12:02.394Z,100.00
2023-03-08T04:15:05.856Z,100.00
2023-03-08T04:18:08.436Z,100.00
2023-03-08T04:21:11.951Z,100.00
2023-03-08T04:24:14.565Z,100.00
2023-03-08T04:27:18.486Z,100.00
2023-03-08T04:30:21.206Z,100.00
2023-03-08T04:33:24.337Z,100.00
2023-03-08T04:36:26.955Z,100.00
2023-03-08T04:39:29.636Z,100.00
2023-03-08T04:42:33.586Z,100.00
2023-03-08T04:45:36.168Z,100.00
2023-03-08T04:48:39.206Z,100.00
2023-03-08T04:51:41.855Z,100.00
2023-03-08T04:54:44.513Z,100.00
2023-03-08T04:57:48.428Z,100.00
2023-03-08T05:00:51.081Z,100.00
2023-03-08T05:03:54.352Z,100.00
2023-03-08T05:06:56.933Z,100.00
2023-03-08T05:10:00.261Z,100.00
2023-03-08T05:13:04.272Z,100.00
2023-03-08T05:16:08.622Z,100.00
2023-03-08T05:19:11.253Z,100.00
2023-03-08T05:22:14.010Z,100.00
2023-03-08T05:25:16.650Z,100.00
2023-03-08T05:28:20.773Z,100.00
2023-03-08T05:31:23.750Z,100.00
2023-03-08T05:34:26.475Z,100.00
2023-03-08T05:37:29.066Z,100.00
2023-03-08T05:40:31.649Z,100.00
2023-03-08T05:43:36.449Z,100.00
2023-03-08T05:46:39.191Z,100.00
2023-03-08T05:49:41.800Z,100.00
2023-03-08T05:52:45.198Z,100.00
2023-03-08T05:55:47.781Z,100.00
2023-03-08T05:58:52.625Z,100.00
2023-03-08T06:01:55.206Z,100.00
2023-03-08T06:04:57.791Z,100.00
2023-03-08T06:08:00.912Z,100.00
2023-03-08T06:11:03.624Z,100.00
2023-03-08T06:14:07.543Z,100.00
2023-03-08T06:17:10.127Z,100.00
2023-03-08T06:20:13.136Z,100.00
2023-03-08T06:23:15.718Z,100.00
2023-03-08T06:26:18.599Z,100.00
2023-03-08T06:29:22.640Z,100.00
2023-03-08T06:32:25.326Z,100.00
2023-03-08T06:35:27.958Z,100.00
2023-03-08T06:38:33.548Z,100.00
2023-03-08T06:41:36.623Z,100.00
2023-03-08T06:44:40.562Z,100.00
2023-03-08T06:47:43.151Z,100.00
2023-03-08T06:50:46.134Z,100.00
2023-03-08T06:53:49.167Z,100.00
2023-03-08T06:56:51.761Z,100.00
2023-03-08T06:59:55.696Z,100.00
2023-03-08T07:02:58.412Z,100.00
2023-03-08T07:06:01.504Z,100.00
2023-03-08T07:09:04.676Z,100.00
2023-03-08T07:12:08.237Z,100.00
2023-03-08T07:15:14.471Z,100.00
2023-03-08T07:18:17.072Z,100.00
2023-03-08T07:21:19.648Z,100.00
2023-03-08T07:24:22.201Z,100.00
2023-03-08T07:27:24.961Z,100.00
2023-03-08T07:30:29.018Z,100.00
2023-03-08T07:33:31.652Z,100.00
2023-03-08T07:36:34.545Z,100.00
2023-03-08T07:39:37.108Z,100.00
2023-03-08T07:42:39.696Z,100.00
2023-03-08T07:45:43.639Z,100.00
2023-03-08T07:48:46.226Z,100.00
2023-03-08T07:51:51.320Z,100.00
2023-03-08T07:54:53.899Z,100.00
2023-03-08T07:57:56.492Z,99.92
2023-03-08T08:01:00.447Z,98.72
2023-03-08T08:04:03.768Z,99.56
2023-03-08T08:07:06.640Z,99.26
2023-03-08T08:10:10.126Z,99.23
2023-03-08T08:13:12.745Z,99.40
2023-03-08T08:16:17.842Z,98.57
2023-03-08T08:19:20.436Z,98.53
2023-03-08T08:22:23.044Z,98.81
2023-03-08T08:25:25.897Z,98.14
2023-03-08T08:28:28.922Z,98.45
2023-03-08T08:31:33.024Z,97.04
2023-03-08T08:34:35.657Z,96.53
2023-03-08T08:37:38.251Z,98.44
2023-03-08T08:40:40.817Z,98.27
2023-03-08T08:43:43.980Z,99.03
2023-03-08T08:46:47.928Z,99.00
2023-03-08T08:49:50.535Z,96.52
2023-03-08T08:52:53.136Z,96.18
2023-03-08T08:55:55.743Z,97.40
2023-03-08T08:59:00.351Z,95.39
2023-03-08T09:02:04.398Z,93.12
2023-03-08T09:05:07.414Z,93.29
2023-03-08T09:08:10.685Z,94.73
2023-03-08T09:11:13.289Z,94.12
2023-03-08T09:14:16.175Z,92.78
2023-03-08T09:17:20.082Z,92.88
2023-03-08T09:20:23.589Z,91.67
2023-03-08T09:23:26.395Z,92.44
2023-03-08T09:26:30.424Z,92.44
2023-03-08T09:29:33.736Z,92.06
2023-03-08T09:32:37.686Z,92.25
2023-03-08T09:35:40.461Z,92.84
2023-03-08T09:38:43.408Z,92.48
2023-03-08T09:41:50.547Z,93.37
2023-03-08T09:45:02.280Z,92.39
2023-03-08T09:48:14.231Z,90.57
2023-03-08T09:51:20.577Z,90.53
2023-03-08T09:54:25.631Z,90.30
2023-03-08T09:57:32.421Z,89.03
2023-03-08T10:00:37.075Z,89.68
2023-03-08T10:03:57.873Z,89.57
2023-03-08T10:07:17.318Z,87.65
2023-03-08T10:10:31.901Z,88.10
2023-03-08T10:13:36.397Z,87.57
2023-03-08T10:16:45.063Z,87.10
2023-03-08T10:19:56.562Z,89.68
2023-03-08T10:23:02.214Z,86.75
2023-03-08T10:26:10.549Z,86.99
2023-03-08T10:29:14.348Z,85.52
2023-03-08T10:32:17.083Z,85.63
2023-03-08T10:35:33.008Z,84.76
2023-03-08T10:38:37.823Z,82.83
2023-03-08T10:41:44.143Z,83.99
2023-03-08T10:44:53.928Z,84.26
2023-03-08T10:47:58.815Z,85.07
2023-03-08T10:51:06.550Z,83.86
2023-03-08T10:54:16.233Z,85.63
2023-03-08T10:57:21.555Z,85.77
2023-03-08T11:00:35.943Z,85.61
2023-03-08T11:03:38.518Z,85.12
2023-03-08T11:06:42.977Z,86.48
2023-03-08T11:09:45.565Z,83.54
2023-03-08T11:12:48.264Z,83.24
2023-03-08T11:15:57.256Z,80.66
2023-03-08T11:19:12.290Z,81.25
2023-03-08T11:22:27.025Z,81.45
2023-03-08T11:25:37.363Z,80.14
2023-03-08T11:28:56.118Z,79.23
2023-03-08T11:32:07.148Z,78.74
2023-03-08T11:35:17.101Z,77.64
2023-03-08T11:38:25.407Z,75.07
2023-03-08T11:41:39.590Z,73.75
2023-03-08T11:45:00.920Z,75.16
2023-03-08T11:48:21.621Z,71.79
2023-03-08T11:51:33.667Z,73.62
2023-03-08T11:54:52.164Z,72.73
2023-03-08T11:57:59.308Z,73.64
2023-03-08T12:01:03.834Z,72.58
2023-03-08T12:04:12.595Z,74.58
2023-03-08T12:07:23.103Z,74.50
2023-03-08T12:10:30.098Z,74.17
2023-03-08T12:13:35.264Z,73.28
2023-03-08T12:16:45.804Z,70.78
2023-03-08T12:19:50.570Z,71.27
2023-03-08T12:22:58.696Z,71.91
2023-03-08T12:26:09.818Z,74.40
2023-03-08T12:29:20.770Z,71.88
2023-03-08T12:32:27.129Z,72.95
2023-03-08T12:35:31.840Z,70.13
2023-03-08T12:38:37.864Z,68.78
2023-03-08T12:41:41.916Z,68.87
2023-03-08T12:44:45.666Z,68.82
2023-03-08T12:47:57.713Z,68.17
2023-03-08T12:51:09.674Z,67.55
2023-03-08T12:54:23.379Z,67.52
2023-03-08T12:57:30.667Z,68.53
2023-03-08T13:00:36.144Z,67.48
2023-03-08T13:03:41.324Z,67.79
2023-03-08T13:07:20.090Z,67.72
2023-03-08T13:10:24.406Z,70.42
2023-03-08T13:13:39.255Z,69.62
2023-03-08T13:16:42.198Z,69.11
2023-03-08T13:19:45.173Z,68.87
2023-03-08T13:23:01.690Z,68.34
2023-03-08T13:26:31.372Z,66.60
2023-03-08T13:29:39.821Z,65.83
2023-03-08T13:32:42.525Z,64.87
2023-03-08T13:35:55.412Z,65.61
2023-03-08T13:39:00.258Z,66.24
2023-03-08T13:42:08.447Z,64.71
2023-03-08T13:45:18.657Z,63.00
2023-03-08T13:48:23.717Z,62.82
2023-03-08T13:51:28.262Z,63.24
2023-03-08T13:54:33.307Z,60.07
2023-03-08T13:57:38.970Z,58.98
2023-03-08T14:00:43.114Z,55.61
2023-03-08T14:03:47.279Z,55.50
2023-03-08T14:06:51.505Z,56.10
2023-03-08T14:09:54.169Z,55.47
2023-03-08T14:12:57.108Z,59.03
2023-03-08T14:16:02.786Z,60.01
2023-03-08T14:19:11.988Z,59.15
2023-03-08T14:22:32.266Z,60.81
2023-03-08T14:25:38.900Z,60.09
2023-03-08T14:28:42.865Z,60.74
2023-03-08T14:32:05.810Z,61.96
2023-03-08T14:35:17.544Z,60.98
2023-03-08T14:38:25.553Z,63.40
2023-03-08T14:41:33.468Z,61.21
2023-03-08T14:44:36.266Z,60.50
2023-03-08T14:47:50.675Z,59.22
2023-03-08T14:50:56.024Z,57.62
2023-03-08T14:54:00.865Z,58.64
2023-03-08T14:57:16.973Z,56.55
2023-03-08T15:00:20.457Z,58.52
2023-03-08T15:03:25.295Z,59.12
2023-03-08T15:06:30.564Z,60.83
2023-03-08T15:09:33.464Z,59.42
2023-03-08T15:12:36.199Z,61.09
2023-03-08T15:15:38.797Z,59.55
2023-03-08T15:18:42.934Z,61.94
2023-03-08T15:21:45.530Z,61.38
2023-03-08T15:24:48.111Z,59.45
2023-03-08T15:27:50.811Z,59.88
2023-03-08T15:30:54.881Z,59.05
2023-03-08T15:33:58.938Z,58.88
2023-03-08T15:37:01.591Z,60.67
2023-03-08T15:40:08.223Z,60.26
2023-03-08T15:43:11.643Z,62.40
2023-03-08T15:46:15.329Z,62.64
2023-03-08T15:49:19.317Z,62.97
2023-03-08T15:52:24.685Z,62.68
2023-03-08T15:55:30.798Z,63.95
2023-03-08T15:58:33.380Z,64.29
2023-03-08T16:01:36.001Z,63.83
2023-03-08T16:04:41.968Z,64.86
2023-03-08T16:07:44.584Z,65.29
2023-03-08T16:10:47.302Z,63.48
2023-03-08T16:13:51.893Z,65.23
2023-03-08T16:16:54.499Z,65.22
2023-03-08T16:19:58.526Z,65.82
2023-03-08T16:23:01.094Z,65.86
2023-03-08T16:26:15.206Z,65.60
2023-03-08T16:29:19.147Z,66.74
2023-03-08T16:32:21.876Z,67.25
2023-03-08T16:35:25.910Z,68.75
2023-03-08T16:38:28.511Z,69.58
2023-03-08T16:41:31.106Z,68.29
2023-03-08T16:44:33.768Z,69.08
2023-03-08T16:47:36.417Z,68.92
2023-03-08T16:50:40.348Z,69.20
2023-03-08T16:53:43.563Z,69.80
2023-03-08T16:56:46.181Z,68.78
2023-03-08T16:59:49.291Z,69.26
2023-03-08T17:02:51.878Z,70.21
2023-03-08T17:05:55.844Z,70.55
2023-03-08T17:08:59.285Z,70.74
2023-03-08T17:12:02.062Z,72.37
2023-03-08T17:15:05.293Z,71.94
2023-03-08T17:18:08.428Z,71.42
2023-03-08T17:21:12.380Z,70.96
2023-03-08T17:24:15.680Z,72.32
2023-03-08T17:27:18.244Z,72.19
2023-03-08T17:30:20.979Z,72.43
2023-03-08T17:33:25.908Z,72.94
2023-03-08T17:36:30.033Z,74.39
2023-03-08T17:39:32.633Z,74.81
2023-03-08T17:42:36.365Z,74.00
2023-03-08T17:45:38.955Z,74.34
2023-03-08T17:48:41.913Z,75.26
2023-03-08T17:51:45.842Z,75.45
2023-03-08T17:54:49.030Z,74.93
2023-03-08T17:57:52.068Z,76.27
2023-03-08T18:00:54.889Z,75.28
2023-03-08T18:03:58.292Z,75.23
2023-03-08T18:07:02.197Z,76.22
2023-03-08T18:10:06.062Z,76.15
2023-03-08T18:13:08.599Z,76.56
2023-03-08T18:16:11.205Z,76.52
2023-03-08T18:19:14.037Z,76.62
2023-03-08T18:22:18.331Z,77.01
2023-03-08T18:25:20.959Z,77.53
2023-03-08T18:28:23.533Z,77.27
2023-03-08T18:31:27.107Z,77.70
2023-03-08T18:34:30.305Z,77.50
2023-03-08T18:37:34.476Z,78.07
2023-03-08T18:40:37.061Z,77.92
2023-03-08T18:43:40.886Z,78.16
2023-03-08T18:46:43.767Z,78.25
2023-03-08T18:49:46.447Z,78.09
2023-03-08T18:52:50.367Z,79.12
2023-03-08T18:55:58.105Z,79.00
2023-03-08T18:59:03.211Z,78.49
2023-03-08T19:02:05.833Z,78.78
2023-03-08T19:05:09.030Z,79.08
2023-03-08T19:08:12.976Z,79.54
2023-03-08T19:11:17.738Z,78.69
2023-03-08T19:14:20.324Z,79.59
2023-03-08T19:17:22.951Z,79.44
2023-03-08T19:20:26.533Z,80.30
2023-03-08T19:23:30.479Z,80.57
2023-03-08T19:26:37.759Z,80.75
2023-03-08T19:29:40.386Z,80.65
2023-03-08T19:32:43.107Z,80.64
2023-03-08T19:35:45.784Z,80.82
2023-03-08T19:38:49.865Z,80.83
2023-03-08T19:41:54.343Z,80.76
2023-03-08T19:44:56.930Z,81.08
2023-03-08T19:47:59.482Z,80.98
2023-03-08T19:51:02.548Z,81.04
2023-03-08T19:54:06.883Z,81.01
2023-03-08T19:57:10.336Z,82.05
2023-03-08T20:00:14.798Z,81.70
2023-03-08T20:03:18.429Z,82.48
2023-03-08T20:06:25.854Z,82.52
2023-03-08T20:09:30.119Z,82.08
2023-03-08T20:12:33.177Z,82.54
2023-03-08T20:15:35.805Z,82.71
2023-03-08T20:18:38.643Z,82.35
2023-03-08T20:21:41.261Z,82.63
2023-03-08T20:24:45.435Z,83.47
2023-03-08T20:27:48.032Z,83.40
2023-03-08T20:30:50.642Z,83.77
2023-03-08T20:33:53.600Z,83.82
2023-03-08T20:36:56.208Z,83.58
2023-03-08T20:40:01.261Z,83.67
2023-03-08T20:43:03.866Z,83.12
2023-03-08T20:46:09.145Z,83.42
2023-03-08T20:49:12.372Z,82.84
2023-03-08T20:52:15.121Z,82.72
2023-03-08T20:55:19.308Z,83.16
2023-03-08T20:58:22.228Z,82.67
2023-03-08T21:01:26.804Z,82.62
2023-03-08T21:04:30.368Z,82.94
2023-03-08T21:07:33.401Z,82.59
2023-03-08T21:10:39.242Z,82.98
2023-03-08T21:13:42.130Z,82.85
2023-03-08T21:16:44.856Z,83.26
2023-03-08T21:19:47.408Z,82.44
2023-03-08T21:22:50.606Z,82.33
2023-03-08T21:25:54.933Z,82.65
2023-03-08T21:29:00.751Z,82.33
2023-03-08T21:32:04.131Z,82.57
2023-03-08T21:35:07.478Z,82.49
2023-03-08T21:38:10.650Z,83.12
2023-03-08T21:41:22.439Z,82.15
2023-03-08T21:44:25.533Z,82.45
2023-03-08T21:47:28.108Z,82.66
2023-03-08T21:50:30.673Z,82.81
2023-03-08T21:53:33.398Z,82.27
2023-03-08T21:56:37.383Z,83.06
2023-03-08T21:59:40.017Z,83.16
2023-03-08T22:02:45.688Z,83.56
2023-03-08T22:05:48.608Z,83.16
2023-03-08T22:08:51.472Z,83.05
2023-03-08T22:11:56.865Z,82.56
2023-03-08T22:14:59.464Z,82.41
2023-03-08T22:18:02.067Z,82.65
2023-03-08T22:21:04.802Z,83.15
2023-03-08T22:24:07.769Z,83.04
2023-03-08T22:27:13.038Z,83.73
2023-03-08T22:30:15.860Z,83.46
2023-03-08T22:33:18.493Z,83.27
2023-03-08T22:36:22.472Z,83.16
2023-03-08T22:39:25.096Z,82.99
2023-03-08T22:42:29.110Z,83.52
2023-03-08T22:45:31.729Z,82.40
2023-03-08T22:48:34.508Z,82.47
2023-03-08T22:51:37.063Z,82.49
2023-03-08T22:54:39.629Z,82.62
2023-03-08T22:57:43.551Z,82.18
2023-03-08T23:00:47.248Z,82.55
2023-03-08T23:03:50.179Z,82.82
2023-03-08T23:06:53.206Z,82.55
2023-03-08T23:09:55.747Z,81.74
2023-03-08T23:12:59.908Z,82.68
2023-03-08T23:16:03.179Z,82.56
2023-03-08T23:19:06.132Z,83.23
2023-03-08T23:22:08.686Z,82.86
2023-03-08T23:25:11.565Z,83.00
2023-03-08T23:28:15.490Z,82.77
2023-03-08T23:31:20.553Z,82.62
2023-03-08T23:34:23.427Z,83.02
2023-03-08T23:37:26.292Z,83.03
2023-03-08T23:40:28.847Z,83.79
2023-03-08T23:43:32.827Z,84.49
2023-03-08T23:46:35.404Z,83.77
2023-03-08T23:49:37.980Z,83.70
2023-03-08T23:52:40.552Z,83.46
2023-03-08T23:55:44.027Z,83.42
2023-03-08T23:58:50.571Z,83.02
